createdAt,value
2018-01-06T00:00:16.773Z,7.70
2018-01-06T00:02:44.519Z,7.70
2018-01-06T00:05:12.304Z,7.70
2018-01-06T00:07:40.039Z,7.60
2018-01-06T00:10:07.781Z,7.50
2018-01-06T00:12:35.567Z,7.50
2018-01-06T00:15:03.303Z,7.50
2018-01-06T00:17:31.028Z,7.50
2018-01-06T00:19:58.806Z,7.40
2018-01-06T00:22:27.308Z,7.40
2018-01-06T00:24:55.059Z,7.40
2018-01-06T00:27:23.635Z,7.40
2018-01-06T00:29:52.128Z,7.40
2018-01-06T00:32:19.880Z,7.40
2018-01-06T00:34:48.426Z,7.40
2018-01-06T00:37:16.179Z,7.40
2018-01-06T00:39:43.936Z,7.40
2018-01-06T00:42:11.719Z,7.40
2018-01-06T00:44:39.447Z,7.40
2018-01-06T00:47:07.176Z,7.40
2018-01-06T00:49:34.980Z,7.50
2018-01-06T00:52:02.717Z,7.50
2018-01-06T00:54:30.452Z,7.50
2018-01-06T00:56:59.003Z,7.60
2018-01-06T00:59:26.735Z,7.60
2018-01-06T01:01:54.460Z,7.60
2018-01-06T01:04:22.243Z,7.60
2018-01-06T01:06:49.973Z,7.70
2018-01-06T01:09:18.468Z,7.70
2018-01-06T01:11:46.260Z,7.70
2018-01-06T01:14:13.988Z,7.80
2018-01-06T01:16:41.718Z,7.70
2018-01-06T01:19:09.503Z,7.70
2018-01-06T01:21:37.991Z,7.50
2018-01-06T01:24:05.732Z,7.50
2018-01-06T01:26:34.284Z,7.50
2018-01-06T01:29:02.008Z,7.50
2018-01-06T01:31:29.740Z,7.50
2018-01-06T01:33:58.287Z,7.50
2018-01-06T01:36:26.012Z,7.50
2018-01-06T01:38:53.783Z,7.60
2018-01-06T01:41:21.566Z,7.60
2018-01-06T01:43:49.309Z,7.60
2018-01-06T01:46:17.032Z,7.60
2018-01-06T01:48:45.583Z,7.60
2018-01-06T01:51:13.321Z,7.60
2018-01-06T01:53:41.047Z,7.60
2018-01-06T01:56:08.859Z,7.70
2018-01-06T01:58:36.587Z,7.70
2018-01-06T02:01:04.320Z,7.80
2018-01-06T02:03:32.891Z,7.80
2018-01-06T02:06:01.400Z,7.80
2018-01-06T02:08:29.128Z,7.80
2018-01-06T02:10:57.683Z,7.90
2018-01-06T02:13:25.421Z,7.90
2018-01-06T02:15:53.152Z,7.90
2018-01-06T02:18:20.939Z,7.90
2018-01-06T02:20:48.663Z,7.90
2018-01-06T02:23:17.172Z,7.90
2018-01-06T02:25:44.956Z,7.80
2018-01-06T02:28:12.686Z,7.90
2018-01-06T02:30:40.419Z,7.90
2018-01-06T02:33:09.004Z,8.00
2018-01-06T02:35:37.500Z,8.00
2018-01-06T02:38:06.105Z,8.00
2018-01-06T02:40:33.900Z,8.00
2018-01-06T02:43:01.634Z,8.00
2018-01-06T02:45:29.366Z,8.00
2018-01-06T02:47:57.154Z,8.00
2018-01-06T02:50:24.934Z,8.00
2018-01-06T02:52:52.659Z,8.00
2018-01-06T02:55:20.438Z,8.00
2018-01-06T02:57:48.188Z,7.90
2018-01-06T03:00:15.918Z,7.90
2018-01-06T03:02:44.468Z,7.90
2018-01-06T03:05:12.193Z,7.80
2018-01-06T03:07:39.914Z,7.80
2018-01-06T03:10:08.467Z,7.70
2018-01-06T03:12:36.190Z,7.70
2018-01-06T03:15:03.921Z,7.70
2018-01-06T03:17:32.479Z,7.60
2018-01-06T03:20:00.214Z,7.60
2018-01-06T03:22:27.960Z,7.70
2018-01-06T03:24:55.741Z,7.70
2018-01-06T03:27:23.478Z,7.70
2018-01-06T03:29:51.205Z,7.70
2018-01-06T03:32:19.757Z,7.60
2018-01-06T03:34:47.488Z,7.60
2018-01-06T03:37:15.227Z,7.60
2018-01-06T03:39:43.019Z,7.70
2018-01-06T03:42:10.748Z,7.70
2018-01-06T03:44:38.480Z,7.80
2018-01-06T03:47:06.269Z,8.00
2018-01-06T03:49:33.994Z,8.00
2018-01-06T03:52:01.724Z,8.10
2018-01-06T03:54:29.513Z,8.10
2018-01-06T03:56:57.239Z,7.90
2018-01-06T03:59:24.962Z,7.90
2018-01-06T04:01:53.510Z,7.80
2018-01-06T04:04:21.235Z,7.80
2018-01-06T04:06:48.969Z,7.80
2018-01-06T04:09:17.521Z,7.80
2018-01-06T04:11:45.247Z,7.80
2018-01-06T04:14:12.986Z,7.80
2018-01-06T04:16:40.778Z,7.90
2018-01-06T04:19:08.520Z,7.90
2018-01-06T04:21:36.243Z,8.00
2018-01-06T04:24:04.790Z,7.90
2018-01-06T04:26:32.527Z,7.90
2018-01-06T04:29:00.280Z,7.90
2018-01-06T04:31:28.073Z,8.00
2018-01-06T04:33:55.804Z,8.10
2018-01-06T04:36:23.533Z,8.10
2018-01-06T04:38:52.077Z,7.90
2018-01-06T04:41:19.808Z,7.90
2018-01-06T04:43:47.541Z,7.90
2018-01-06T04:46:16.092Z,7.80
2018-01-06T04:48:43.820Z,7.80
2018-01-06T04:51:11.565Z,7.70
2018-01-06T04:53:39.352Z,7.70
2018-01-06T04:56:07.080Z,7.70
2018-01-06T04:58:34.806Z,7.60
2018-01-06T05:01:02.603Z,7.50
2018-01-06T05:03:30.326Z,7.50
2018-01-06T05:05:58.061Z,7.50
2018-01-06T05:08:26.615Z,7.30
2018-01-06T05:10:54.339Z,7.30
2018-01-06T05:13:22.073Z,7.20
2018-01-06T05:15:50.630Z,7.00
2018-01-06T05:18:18.356Z,7.00
2018-01-06T05:20:46.847Z,7.00
2018-01-06T05:23:14.644Z,7.00
2018-01-06T05:25:42.367Z,6.90
2018-01-06T05:28:10.093Z,6.90
2018-01-06T05:30:37.875Z,6.80
2018-01-06T05:33:06.373Z,6.80
2018-01-06T05:35:34.098Z,6.80
2018-01-06T05:38:01.881Z,6.80
2018-01-06T05:40:30.375Z,6.90
2018-01-06T05:42:58.104Z,6.90
2018-01-06T05:45:25.907Z,7.00
2018-01-06T05:47:53.635Z,7.00
2018-01-06T05:50:22.132Z,7.30
2018-01-06T05:52:49.968Z,7.30
2018-01-06T05:55:17.694Z,7.40
2018-01-06T05:57:45.415Z,7.50
2018-01-06T06:00:13.972Z,7.50
2018-01-06T06:02:41.711Z,7.50
2018-01-06T06:05:09.443Z,7.60
2018-01-06T06:07:37.228Z,7.60
2018-01-06T06:10:04.957Z,7.60
2018-01-06T06:12:32.691Z,7.70
2018-01-06T06:15:01.243Z,7.70
2018-01-06T06:17:28.976Z,7.70
2018-01-06T06:19:56.708Z,7.80
2018-01-06T06:22:24.491Z,7.90
2018-01-06T06:24:52.221Z,7.90
2018-01-06T06:27:20.713Z,8.00
2018-01-06T06:29:48.795Z,7.90
2018-01-06T06:32:16.531Z,8.00
2018-01-06T06:34:45.023Z,8.00
2018-01-06T06:37:12.807Z,7.90
2018-01-06T06:39:40.536Z,7.90
2018-01-06T06:42:09.032Z,8.00
2018-01-06T06:44:36.815Z,7.90
2018-01-06T06:47:04.547Z,8.00
2018-01-06T06:49:32.279Z,8.00
2018-01-06T06:52:00.067Z,8.00
2018-01-06T06:54:27.793Z,8.10
2018-01-06T06:56:55.535Z,8.10
2018-01-06T06:59:23.340Z,8.00
2018-01-06T07:01:51.838Z,7.90
2018-01-06T07:04:19.567Z,7.90
2018-01-06T07:06:47.346Z,7.80
2018-01-06T07:09:15.847Z,7.70
2018-01-06T07:11:43.588Z,7.70
2018-01-06T07:14:12.151Z,7.70
2018-01-06T07:16:40.655Z,7.70
2018-01-06T07:19:08.383Z,7.70
2018-01-06T07:21:36.179Z,7.70
2018-01-06T07:24:03.928Z,7.70
2018-01-06T07:26:32.456Z,7.70
2018-01-06T07:29:00.248Z,7.70
2018-01-06T07:31:27.983Z,7.80
2018-01-06T07:33:55.729Z,7.90
2018-01-06T07:36:24.290Z,8.10
2018-01-06T07:38:52.019Z,8.00
2018-01-06T07:41:19.752Z,8.10
2018-01-06T07:43:47.536Z,8.10
2018-01-06T07:46:15.273Z,8.20
2018-01-06T07:48:43.003Z,8.30
2018-01-06T07:51:10.782Z,8.30
2018-01-06T07:53:38.513Z,8.30
2018-01-06T07:56:06.231Z,8.40
2018-01-06T07:58:34.019Z,8.40
2018-01-06T08:01:02.513Z,8.50
2018-01-06T08:03:30.239Z,8.50
2018-01-06T08:05:58.030Z,8.60
2018-01-06T08:08:26.523Z,8.80
2018-01-06T08:10:54.267Z,8.80
2018-01-06T08:13:22.851Z,9.00
2018-01-06T08:15:51.357Z,9.10
2018-01-06T08:18:19.123Z,9.00
2018-01-06T08:20:46.964Z,9.20
2018-01-06T08:23:14.719Z,9.40
2018-01-06T08:25:42.467Z,9.60
2018-01-06T08:28:11.016Z,9.90
2018-01-06T08:30:38.743Z,9.90
2018-01-06T08:33:06.502Z,10.10
2018-01-06T08:35:34.296Z,10.30
2018-01-06T08:38:02.795Z,10.70
2018-01-06T08:40:30.526Z,10.70
2018-01-06T08:42:58.317Z,10.90
2018-01-06T08:45:26.087Z,10.90
2018-01-06T08:47:53.825Z,11.10
2018-01-06T08:50:21.607Z,11.20
2018-01-06T08:52:49.363Z,11.40
2018-01-06T08:55:17.108Z,11.70
2018-01-06T08:57:44.890Z,12.00
2018-01-06T09:00:18.366Z,12.00
2018-01-06T09:02:46.157Z,12.00
2018-01-06T09:05:14.664Z,11.90
2018-01-06T09:07:42.395Z,11.90
2018-01-06T09:10:10.185Z,12.00
2018-01-06T09:12:37.937Z,12.10
2018-01-06T09:15:06.442Z,12.50
2018-01-06T09:17:34.228Z,12.40
2018-01-06T09:20:02.024Z,12.60
2018-01-06T09:22:29.752Z,12.70
2018-01-06T09:24:57.543Z,12.80
2018-01-06T09:27:25.284Z,12.90
2018-01-06T09:29:53.023Z,12.80
2018-01-06T09:32:20.808Z,12.80
2018-01-06T09:34:48.544Z,12.80
2018-01-06T09:37:16.296Z,12.60
2018-01-06T09:39:44.096Z,12.40
2018-01-06T09:42:11.847Z,12.20
2018-01-06T09:44:39.757Z,11.90
2018-01-06T09:47:08.309Z,11.50
2018-01-06T09:49:36.047Z,11.50
2018-01-06T09:52:03.787Z,11.30
2018-01-06T09:54:31.590Z,11.20
2018-01-06T09:56:59.315Z,11.10
2018-01-06T09:59:27.044Z,11.00
2018-01-06T10:01:55.597Z,11.00
2018-01-06T10:04:23.340Z,11.00
2018-01-06T10:06:51.076Z,11.00
2018-01-06T10:09:18.869Z,11.10
2018-01-06T10:11:46.595Z,11.30
2018-01-06T10:14:14.323Z,11.40
2018-01-06T10:16:42.880Z,11.90
2018-01-06T10:19:10.608Z,11.90
2018-01-06T10:21:38.353Z,12.20
2018-01-06T10:24:06.134Z,12.50
2018-01-06T10:26:33.859Z,12.70
2018-01-06T10:29:02.363Z,12.80
2018-01-06T10:31:30.152Z,12.80
2018-01-06T10:33:57.882Z,12.80
2018-01-06T10:36:25.607Z,12.90
2018-01-06T10:38:54.155Z,13.10
2018-01-06T10:41:21.908Z,13.00
2018-01-06T10:43:49.651Z,13.30
2018-01-06T10:46:17.437Z,13.10
2018-01-06T10:48:45.176Z,13.40
2018-01-06T10:51:12.900Z,13.60
2018-01-06T10:53:41.453Z,13.70
2018-01-06T10:56:09.181Z,13.60
2018-01-06T10:58:36.919Z,13.70
2018-01-06T11:01:10.432Z,13.70
2018-01-06T11:03:38.163Z,13.70
2018-01-06T11:06:05.986Z,13.70
2018-01-06T11:08:33.766Z,13.70
2018-01-06T11:11:01.508Z,13.60
2018-01-06T11:13:29.272Z,13.60
2018-01-06T11:15:57.059Z,13.40
2018-01-06T11:18:24.794Z,13.10
2018-01-06T11:20:52.522Z,13.10
2018-01-06T11:23:20.323Z,13.20
2018-01-06T11:25:48.049Z,13.20
2018-01-06T11:28:15.775Z,13.10
2018-01-06T11:30:44.333Z,13.10
2018-01-06T11:33:12.060Z,13.00
2018-01-06T11:35:39.786Z,13.00
2018-01-06T11:38:08.336Z,12.90
2018-01-06T11:40:36.116Z,12.90
2018-01-06T11:43:04.620Z,12.70
2018-01-06T11:45:32.415Z,12.70
2018-01-06T11:48:00.149Z,12.70
2018-01-06T11:50:27.879Z,12.60
2018-01-06T11:52:56.430Z,12.70
2018-01-06T11:55:24.161Z,12.70
2018-01-06T11:57:51.904Z,12.70
2018-01-06T12:00:19.691Z,12.70
2018-01-06T12:02:47.423Z,12.80
2018-01-06T12:05:15.147Z,12.70
2018-01-06T12:07:42.933Z,12.60
2018-01-06T12:10:11.432Z,12.80
2018-01-06T12:12:39.186Z,12.80
2018-01-06T12:15:07.737Z,12.80
2018-01-06T12:17:36.281Z,12.80
2018-01-06T12:20:05.048Z,12.80
2018-01-06T12:22:32.884Z,12.80
2018-01-06T12:25:01.422Z,12.80
2018-01-06T12:27:29.315Z,12.70
2018-01-06T12:29:57.977Z,12.80
2018-01-06T12:32:27.382Z,12.80
2018-01-06T12:34:56.068Z,12.80
2018-01-06T12:37:23.896Z,12.80
2018-01-06T12:39:52.532Z,12.80
2018-01-06T12:42:20.981Z,12.80
2018-01-06T12:44:49.829Z,12.80
2018-01-06T12:47:17.692Z,12.80
2018-01-06T12:49:45.439Z,12.80
2018-01-06T12:52:13.994Z,12.80
2018-01-06T12:54:41.818Z,12.80
2018-01-06T12:57:09.556Z,12.90
2018-01-06T12:59:37.342Z,12.80
2018-01-06T13:02:05.119Z,12.80
2018-01-06T13:04:32.942Z,12.80
2018-01-06T13:07:00.911Z,12.60
2018-01-06T13:09:28.679Z,12.70
2018-01-06T13:11:56.437Z,12.60
2018-01-06T13:14:24.224Z,12.60
2018-01-06T13:16:51.959Z,12.60
2018-01-06T13:19:19.696Z,12.50
2018-01-06T13:21:48.243Z,12.50
2018-01-06T13:24:15.998Z,12.40
2018-01-06T13:26:43.735Z,12.50
2018-01-06T13:29:11.533Z,12.40
2018-01-06T13:31:39.318Z,12.40
2018-01-06T13:34:08.888Z,12.20
2018-01-06T13:36:36.675Z,12.20
2018-01-06T13:39:04.426Z,12.20
2018-01-06T13:41:32.151Z,12.20
2018-01-06T13:43:59.940Z,12.10
2018-01-06T13:46:27.663Z,12.00
2018-01-06T13:48:55.538Z,12.00
2018-01-06T13:51:23.332Z,12.00
2018-01-06T13:53:51.066Z,12.00
2018-01-06T13:56:18.796Z,12.00
2018-01-06T13:58:46.595Z,12.00
2018-01-06T14:01:14.365Z,11.90
2018-01-06T14:04:04.068Z,11.90
2018-01-06T14:06:33.044Z,11.90
2018-01-06T14:09:05.150Z,11.90
2018-01-06T14:11:33.644Z,11.90
2018-01-06T14:14:11.584Z,11.80
2018-01-06T14:16:39.434Z,11.60
2018-01-06T14:19:15.645Z,11.50
2018-01-06T14:21:46.669Z,11.40
2018-01-06T14:24:19.391Z,11.10
2018-01-06T14:26:54.081Z,11.00
2018-01-06T14:29:34.922Z,11.00
2018-01-06T14:32:03.454Z,10.70
2018-01-06T14:34:31.245Z,10.70
2018-01-06T14:36:58.982Z,10.60
2018-01-06T14:39:26.712Z,10.50
2018-01-06T14:41:55.272Z,10.30
2018-01-06T14:44:23.006Z,10.30
2018-01-06T14:46:50.821Z,10.10
2018-01-06T14:49:19.367Z,9.90
2018-01-06T14:51:47.095Z,9.90
2018-01-06T14:54:14.826Z,9.90
2018-01-06T14:56:42.610Z,9.80
2018-01-06T14:59:10.342Z,9.70
2018-01-06T15:01:38.841Z,9.50
2018-01-06T15:04:06.632Z,9.50
2018-01-06T15:06:34.364Z,9.50
2018-01-06T15:09:02.111Z,9.60
2018-01-06T15:11:29.896Z,9.70
2018-01-06T15:13:57.627Z,9.60
2018-01-06T15:16:26.132Z,9.40
2018-01-06T15:18:53.915Z,9.40
2018-01-06T15:21:21.647Z,9.40
2018-01-06T15:23:49.375Z,9.40
2018-01-06T15:26:17.184Z,9.40
2018-01-06T15:28:44.913Z,9.40
2018-01-06T15:31:13.419Z,9.40
2018-01-06T15:33:41.215Z,9.40
2018-01-06T15:36:08.940Z,9.40
2018-01-06T15:38:36.693Z,9.40
2018-01-06T15:41:04.484Z,9.40
2018-01-06T15:43:32.256Z,9.50
2018-01-06T15:45:59.986Z,9.60
2018-01-06T15:48:27.789Z,9.60
2018-01-06T15:50:55.523Z,9.60
2018-01-06T15:53:23.254Z,9.50
2018-01-06T15:55:51.800Z,9.50
2018-01-06T15:58:19.549Z,9.50
2018-01-06T16:00:47.278Z,9.50
2018-01-06T16:03:15.060Z,9.40
2018-01-06T16:05:42.789Z,9.40
2018-01-06T16:08:10.520Z,9.40
2018-01-06T16:10:38.316Z,9.50
2018-01-06T16:13:06.046Z,9.50
2018-01-06T16:15:33.987Z,9.50
2018-01-06T16:18:02.849Z,9.60
2018-01-06T16:20:30.584Z,9.70
2018-01-06T16:22:58.327Z,9.60
2018-01-06T16:25:26.946Z,9.50
2018-01-06T16:27:54.677Z,9.50
2018-01-06T16:30:23.235Z,9.60
2018-01-06T16:32:51.023Z,9.60
2018-01-06T16:35:19.516Z,9.60
2018-01-06T16:37:47.249Z,9.60
2018-01-06T16:40:15.802Z,9.60
2018-01-06T16:42:43.532Z,9.60
2018-01-06T16:45:11.266Z,9.70
2018-01-06T16:47:39.826Z,9.60
2018-01-06T16:50:07.559Z,9.60
2018-01-06T16:52:35.294Z,9.60
2018-01-06T16:55:03.093Z,9.60
2018-01-06T16:57:30.830Z,9.50
2018-01-06T16:59:58.577Z,9.40
2018-01-06T17:02:26.386Z,9.40
2018-01-06T17:04:54.113Z,9.50
2018-01-06T17:07:22.056Z,9.50
2018-01-06T17:09:50.262Z,9.50
2018-01-06T17:12:17.992Z,9.40
2018-01-06T17:14:45.847Z,9.30
2018-01-06T17:17:13.643Z,9.30
2018-01-06T17:19:41.371Z,9.40
2018-01-06T17:22:09.105Z,9.40
2018-01-06T17:24:36.939Z,9.40
2018-01-06T17:27:04.671Z,9.40
2018-01-06T17:29:32.408Z,9.40
2018-01-06T17:32:00.959Z,9.50
2018-01-06T17:34:28.703Z,9.50
2018-01-06T17:36:56.441Z,9.60
2018-01-06T17:39:24.232Z,9.60
2018-01-06T17:41:51.966Z,9.60
2018-01-06T17:44:19.696Z,9.60
2018-01-06T17:46:47.479Z,9.60
2018-01-06T17:49:15.216Z,9.50
2018-01-06T17:51:43.710Z,9.50
2018-01-06T17:54:11.509Z,9.50
2018-01-06T17:56:39.240Z,9.50
2018-01-06T17:59:06.972Z,9.50
2018-01-06T18:01:35.551Z,9.60
2018-01-06T18:04:04.063Z,9.40
2018-01-06T18:06:31.845Z,9.40
2018-01-06T18:08:59.654Z,9.40
2018-01-06T18:11:28.163Z,9.40
2018-01-06T18:13:55.893Z,9.40
2018-01-06T18:16:24.447Z,9.40
2018-01-06T18:18:52.179Z,9.40
2018-01-06T18:21:19.915Z,9.30
2018-01-06T18:23:48.102Z,9.30
2018-01-06T18:26:15.846Z,9.30
2018-01-06T18:28:43.573Z,9.30
2018-01-06T18:31:11.370Z,9.30
2018-01-06T18:33:39.125Z,9.40
2018-01-06T18:36:07.641Z,9.40
2018-01-06T18:38:35.445Z,9.40
2018-01-06T18:41:03.947Z,9.40
2018-01-06T18:43:32.456Z,9.30
2018-01-06T18:46:00.263Z,9.30
2018-01-06T18:48:28.008Z,9.40
2018-01-06T18:50:55.782Z,9.30
2018-01-06T18:53:23.572Z,9.30
2018-01-06T18:55:52.077Z,9.20
2018-01-06T18:58:19.810Z,9.20
2018-01-06T19:00:48.377Z,9.20
2018-01-06T19:03:16.115Z,9.20
2018-01-06T19:05:43.862Z,9.20
2018-01-06T19:08:11.661Z,9.10
2018-01-06T19:10:40.165Z,9.20
2018-01-06T19:13:07.907Z,9.20
2018-01-06T19:15:36.508Z,9.10
2018-01-06T19:18:04.366Z,9.10
2018-01-06T19:20:32.960Z,9.10
2018-01-06T19:23:00.793Z,9.10
2018-01-06T19:25:29.717Z,9.10
2018-01-06T19:27:57.467Z,9.10
2018-01-06T19:30:25.274Z,9.10
2018-01-06T19:32:53.023Z,9.10
2018-01-06T19:35:20.775Z,9.10
2018-01-06T19:37:48.578Z,9.10
2018-01-06T19:40:16.328Z,9.10
2018-01-06T19:42:44.072Z,9.10
2018-01-06T19:45:11.860Z,9.10
2018-01-06T19:47:39.608Z,9.00
2018-01-06T19:50:07.355Z,9.00
2018-01-06T19:52:35.179Z,9.00
2018-01-06T19:55:05.164Z,8.80
2018-01-06T19:57:32.910Z,8.80
2018-01-06T20:00:00.719Z,8.70
2018-01-06T20:02:28.472Z,8.70
2018-01-06T20:04:57.013Z,8.60
2018-01-06T20:07:24.812Z,8.50
2018-01-06T20:09:53.329Z,8.50
2018-01-06T20:12:21.070Z,8.50
2018-01-06T20:14:48.884Z,8.50
2018-01-06T20:17:16.635Z,8.50
2018-01-06T20:19:45.144Z,8.50
2018-01-06T20:22:12.972Z,8.50
2018-01-06T20:24:40.718Z,8.60
2018-01-06T20:27:08.465Z,8.60
2018-01-06T20:29:36.277Z,8.60
2018-01-06T20:32:04.218Z,8.60
2018-01-06T20:34:31.964Z,8.60
2018-01-06T20:36:59.813Z,8.70
2018-01-06T20:39:27.570Z,8.60
2018-01-06T20:41:55.327Z,8.60
2018-01-06T20:44:23.144Z,8.60
2018-01-06T20:46:51.022Z,8.70
2018-01-06T20:49:18.791Z,8.70
2018-01-06T20:51:46.613Z,8.70
2018-01-06T20:54:14.370Z,8.80
2018-01-06T20:56:42.127Z,8.80
2018-01-06T20:59:09.978Z,8.70
2018-01-06T21:01:37.727Z,8.70
2018-01-06T21:04:06.238Z,8.70
2018-01-06T21:06:34.067Z,8.60
2018-01-06T21:09:02.615Z,8.60
2018-01-06T21:11:30.358Z,8.60
2018-01-06T21:13:58.195Z,8.60
2018-01-06T21:16:25.994Z,8.70
2018-01-06T21:18:58.747Z,8.60
2018-01-06T21:21:32.846Z,8.60
2018-01-06T21:24:05.829Z,8.50
2018-01-06T21:26:41.083Z,8.50
2018-01-06T21:29:13.404Z,8.50
2018-01-06T21:32:00.517Z,8.50
2018-01-06T21:37:20.615Z,8.40
2018-01-06T21:39:49.542Z,8.40
2018-01-06T21:42:19.187Z,8.40
2018-01-06T21:47:49.053Z,8.40
2018-01-06T21:50:17.605Z,8.30
2018-01-06T21:52:45.336Z,8.30
2018-01-06T21:55:13.097Z,8.40
2018-01-06T21:57:40.944Z,8.50
2018-01-06T22:00:08.676Z,8.60
2018-01-06T22:02:37.177Z,8.50
2018-01-06T22:05:04.968Z,8.50
2018-01-06T22:07:32.696Z,8.50
2018-01-06T22:10:00.551Z,8.50
2018-01-06T22:12:29.224Z,8.50
2018-01-06T22:14:57.725Z,8.50
2018-01-06T22:17:26.410Z,8.50
2018-01-06T22:19:54.275Z,8.50
2018-01-06T22:22:22.099Z,8.50
2018-01-06T22:24:51.447Z,8.50
2018-01-06T22:27:19.236Z,8.50
2018-01-06T22:29:46.975Z,8.50
2018-01-06T22:32:14.700Z,8.50
2018-01-06T22:34:43.248Z,8.50
2018-01-06T22:37:10.997Z,8.50
2018-01-06T22:39:38.723Z,8.50
2018-01-06T22:42:06.535Z,8.50
2018-01-06T22:44:34.266Z,8.50
2018-01-06T22:47:02.012Z,8.40
2018-01-06T22:49:29.955Z,8.40
2018-01-06T22:51:57.736Z,8.40
2018-01-06T22:54:25.464Z,8.30
2018-01-06T22:56:54.020Z,8.40
2018-01-06T22:59:21.747Z,8.40
2018-01-06T23:01:49.474Z,8.40
2018-01-06T23:04:18.024Z,8.40
2018-01-06T23:06:45.769Z,8.40
2018-01-06T23:09:13.500Z,8.30
2018-01-06T23:11:41.316Z,8.30
2018-01-06T23:14:09.085Z,8.20
2018-01-06T23:16:36.821Z,8.20
2018-01-06T23:19:04.605Z,8.20
2018-01-06T23:21:32.332Z,8.20
2018-01-06T23:24:00.062Z,8.10
2018-01-06T23:26:27.852Z,8.10
2018-01-06T23:28:55.582Z,8.10
2018-01-06T23:31:23.310Z,8.10
2018-01-06T23:33:51.093Z,8.10
2018-01-06T23:36:19.591Z,8.10
2018-01-06T23:38:47.319Z,8.10
2018-01-06T23:41:15.876Z,8.00
2018-01-06T23:43:43.608Z,8.00
2018-01-06T23:46:11.334Z,7.90
2018-01-06T23:48:39.879Z,7.70
2018-01-06T23:51:07.630Z,7.60
2018-01-06T23:53:36.124Z,7.60
2018-01-06T23:56:03.910Z,7.60
2018-01-06T23:58:32.411Z,7.50
